sensor_id;sensor_type;location;lat;lon;timestamp;P1;durP1;ratioP1;P2;durP2;ratioP2
34505;SDS011;20748;42.632;23.198;2023-07-20T00:10:39;4.25;;;2.00;;
34505;SDS011;20748;42.632;23.198;2023-07-20T00:13:12;6.93;;;1.50;;
34505;SDS011;20748;42.632;23.198;2023-07-20T00:15:45;5.55;;;1.50;;
34505;SDS011;20748;42.632;23.198;2023-07-20T00:18:17;3.00;;;1.40;;
34505;SDS011;20748;42.632;23.198;2023-07-20T00:20:52;5.63;;;1.70;;
34505;SDS011;20748;42.632;23.198;2023-07-20T00:23:25;7.70;;;1.52;;
34505;SDS011;20748;42.632;23.198;2023-07-20T00:25:58;4.82;;;1.70;;
34505;SDS011;20748;42.632;23.198;2023-07-20T00:32:10;7.57;;;1.80;;
34505;SDS011;20748;42.632;23.198;2023-07-20T00:34:42;5.32;;;1.77;;
34505;SDS011;20748;42.632;23.198;2023-07-20T00:37:15;5.75;;;1.67;;
34505;SDS011;20748;42.632;23.198;2023-07-20T00:39:48;6.30;;;2.33;;
34505;SDS011;20748;42.632;23.198;2023-07-20T00:42:20;5.30;;;1.55;;
34505;SDS011;20748;42.632;23.198;2023-07-20T00:44:53;5.43;;;1.92;;
34505;SDS011;20748;42.632;23.198;2023-07-20T00:47:27;5.90;;;2.00;;
34505;SDS011;20748;42.632;23.198;2023-07-20T00:53:11;6.80;;;1.80;;
34505;SDS011;20748;42.632;23.198;2023-07-20T00:55:44;3.88;;;1.70;;
34505;SDS011;20748;42.632;23.198;2023-07-20T00:58:17;8.27;;;2.53;;
34505;SDS011;20748;42.632;23.198;2023-07-20T01:00:49;3.72;;;1.88;;
34505;SDS011;20748;42.632;23.198;2023-07-20T01:03:24;6.03;;;1.50;;
34505;SDS011;20748;42.632;23.198;2023-07-20T01:05:59;3.47;;;1.92;;
34505;SDS011;20748;42.632;23.198;2023-07-20T01:08:45;3.88;;;1.60;;
34505;SDS011;20748;42.632;23.198;2023-07-20T01:15:14;8.88;;;1.90;;
34505;SDS011;20748;42.632;23.198;2023-07-20T01:17:46;4.97;;;1.73;;
34505;SDS011;20748;42.632;23.198;2023-07-20T01:20:19;7.50;;;1.50;;
34505;SDS011;20748;42.632;23.198;2023-07-20T01:22:59;3.20;;;1.58;;
34505;SDS011;20748;42.632;23.198;2023-07-20T01:25:50;4.80;;;1.60;;
34505;SDS011;20748;42.632;23.198;2023-07-20T01:28:35;4.60;;;2.53;;
34505;SDS011;20748;42.632;23.198;2023-07-20T01:31:21;3.78;;;1.35;;
34505;SDS011;20748;42.632;23.198;2023-07-20T01:36:45;7.72;;;2.03;;
34505;SDS011;20748;42.632;23.198;2023-07-20T01:39:20;4.03;;;2.03;;
34505;SDS011;20748;42.632;23.198;2023-07-20T01:41:53;5.53;;;1.90;;
34505;SDS011;20748;42.632;23.198;2023-07-20T01:44:27;6.22;;;2.13;;
34505;SDS011;20748;42.632;23.198;2023-07-20T01:47:00;6.22;;;2.40;;
34505;SDS011;20748;42.632;23.198;2023-07-20T01:49:35;8.20;;;2.00;;
34505;SDS011;20748;42.632;23.198;2023-07-20T01:52:08;4.28;;;1.92;;
34505;SDS011;20748;42.632;23.198;2023-07-20T01:54:40;5.43;;;2.35;;
34505;SDS011;20748;42.632;23.198;2023-07-20T01:57:32;5.50;;;1.98;;
34505;SDS011;20748;42.632;23.198;2023-07-20T02:00:05;4.75;;;2.83;;
34505;SDS011;20748;42.632;23.198;2023-07-20T02:02:45;3.50;;;1.40;;
34505;SDS011;20748;42.632;23.198;2023-07-20T02:05:20;4.65;;;2.20;;
34505;SDS011;20748;42.632;23.198;2023-07-20T02:07:53;4.03;;;1.98;;
34505;SDS011;20748;42.632;23.198;2023-07-20T02:10:27;5.80;;;2.08;;
34505;SDS011;20748;42.632;23.198;2023-07-20T02:13:00;5.28;;;1.98;;
34505;SDS011;20748;42.632;23.198;2023-07-20T02:22:10;6.78;;;2.65;;
34505;SDS011;20748;42.632;23.198;2023-07-20T02:24:42;4.70;;;2.05;;
34505;SDS011;20748;42.632;23.198;2023-07-20T02:27:15;7.63;;;2.70;;
34505;SDS011;20748;42.632;23.198;2023-07-20T02:29:48;4.55;;;2.83;;
34505;SDS011;20748;42.632;23.198;2023-07-20T02:32:38;6.55;;;2.35;;
34505;SDS011;20748;42.632;23.198;2023-07-20T02:35:10;3.83;;;2.10;;
34505;SDS011;20748;42.632;23.198;2023-07-20T02:37:44;12.85;;;3.03;;
34505;SDS011;20748;42.632;23.198;2023-07-20T02:43:11;6.35;;;3.13;;
34505;SDS011;20748;42.632;23.198;2023-07-20T02:45:44;16.15;;;7.13;;
34505;SDS011;20748;42.632;23.198;2023-07-20T02:48:16;7.53;;;3.47;;
34505;SDS011;20748;42.632;23.198;2023-07-20T02:50:53;6.43;;;3.13;;
34505;SDS011;20748;42.632;23.198;2023-07-20T02:53:26;7.70;;;3.55;;
34505;SDS011;20748;42.632;23.198;2023-07-20T02:55:58;8.18;;;2.60;;
34505;SDS011;20748;42.632;23.198;2023-07-20T02:58:33;6.65;;;2.97;;
34505;SDS011;20748;42.632;23.198;2023-07-20T03:09:39;7.85;;;2.70;;
34505;SDS011;20748;42.632;23.198;2023-07-20T03:12:12;5.20;;;2.95;;
34505;SDS011;20748;42.632;23.198;2023-07-20T03:14:45;7.82;;;2.60;;
34505;SDS011;20748;42.632;23.198;2023-07-20T03:17:17;8.15;;;2.35;;
34505;SDS011;20748;42.632;23.198;2023-07-20T03:19:50;9.77;;;2.65;;
34505;SDS011;20748;42.632;23.198;2023-07-20T03:22:27;6.22;;;2.38;;
34505;SDS011;20748;42.632;23.198;2023-07-20T03:25:00;13.52;;;3.20;;
34505;SDS011;20748;42.632;23.198;2023-07-20T03:36:34;8.23;;;2.28;;
34505;SDS011;20748;42.632;23.198;2023-07-20T03:39:07;5.38;;;2.67;;
34505;SDS011;20748;42.632;23.198;2023-07-20T03:41:39;6.45;;;3.00;;
34505;SDS011;20748;42.632;23.198;2023-07-20T03:44:15;9.65;;;3.40;;
34505;SDS011;20748;42.632;23.198;2023-07-20T03:46:48;5.05;;;2.25;;
34505;SDS011;20748;42.632;23.198;2023-07-20T03:49:21;10.82;;;3.05;;
34505;SDS011;20748;42.632;23.198;2023-07-20T03:51:54;7.07;;;2.70;;
34505;SDS011;20748;42.632;23.198;2023-07-20T03:58:22;10.50;;;3.22;;
34505;SDS011;20748;42.632;23.198;2023-07-20T04:00:54;9.93;;;2.75;;
34505;SDS011;20748;42.632;23.198;2023-07-20T04:03:28;11.95;;;2.80;;
34505;SDS011;20748;42.632;23.198;2023-07-20T04:06:00;8.68;;;2.70;;
34505;SDS011;20748;42.632;23.198;2023-07-20T04:08:33;9.07;;;2.53;;
34505;SDS011;20748;42.632;23.198;2023-07-20T04:11:05;9.55;;;3.50;;
34505;SDS011;20748;42.632;23.198;2023-07-20T04:13:38;10.57;;;3.35;;
34505;SDS011;20748;42.632;23.198;2023-07-20T04:20:18;9.27;;;2.75;;
34505;SDS011;20748;42.632;23.198;2023-07-20T04:22:50;6.68;;;2.78;;
34505;SDS011;20748;42.632;23.198;2023-07-20T04:25:26;9.13;;;2.58;;
34505;SDS011;20748;42.632;23.198;2023-07-20T04:28:00;5.78;;;2.40;;
34505;SDS011;20748;42.632;23.198;2023-07-20T04:30:32;5.70;;;2.28;;
34505;SDS011;20748;42.632;23.198;2023-07-20T04:33:04;7.05;;;2.50;;
34505;SDS011;20748;42.632;23.198;2023-07-20T04:35:47;6.05;;;1.95;;
34505;SDS011;20748;42.632;23.198;2023-07-20T04:42:06;5.55;;;2.65;;
34505;SDS011;20748;42.632;23.198;2023-07-20T04:44:40;4.47;;;1.80;;
34505;SDS011;20748;42.632;23.198;2023-07-20T04:47:13;5.82;;;1.75;;
34505;SDS011;20748;42.632;23.198;2023-07-20T04:49:46;5.57;;;2.53;;
34505;SDS011;20748;42.632;23.198;2023-07-20T04:52:21;4.63;;;2.00;;
34505;SDS011;20748;42.632;23.198;2023-07-20T04:55:08;5.55;;;2.45;;
34505;SDS011;20748;42.632;23.198;2023-07-20T05:04:01;6.22;;;2.35;;
34505;SDS011;20748;42.632;23.198;2023-07-20T05:06:34;6.07;;;2.00;;
34505;SDS011;20748;42.632;23.198;2023-07-20T05:09:08;4.15;;;2.20;;
34505;SDS011;20748;42.632;23.198;2023-07-20T05:11:40;5.32;;;2.25;;
34505;SDS011;20748;42.632;23.198;2023-07-20T05:14:12;13.02;;;2.53;;
34505;SDS011;20748;42.632;23.198;2023-07-20T05:16:45;6.15;;;2.17;;
34505;SDS011;20748;42.632;23.198;2023-07-20T05:19:20;9.20;;;2.28;;
34505;SDS011;20748;42.632;23.198;2023-07-20T05:29:33;5.72;;;2.58;;
34505;SDS011;20748;42.632;23.198;2023-07-20T05:32:06;8.75;;;2.78;;
34505;SDS011;20748;42.632;23.198;2023-07-20T05:34:39;17.30;;;3.95;;
34505;SDS011;20748;42.632;23.198;2023-07-20T05:37:11;10.52;;;3.67;;
34505;SDS011;20748;42.632;23.198;2023-07-20T05:39:46;10.68;;;3.58;;
34505;SDS011;20748;42.632;23.198;2023-07-20T05:42:18;6.25;;;2.95;;
34505;SDS011;20748;42.632;23.198;2023-07-20T05:44:51;12.13;;;4.13;;
34505;SDS011;20748;42.632;23.198;2023-07-20T05:54:02;7.35;;;3.10;;
34505;SDS011;20748;42.632;23.198;2023-07-20T05:56:35;9.30;;;3.15;;
34505;SDS011;20748;42.632;23.198;2023-07-20T05:59:10;8.18;;;2.85;;
34505;SDS011;20748;42.632;23.198;2023-07-20T06:01:43;9.07;;;3.25;;
34505;SDS011;20748;42.632;23.198;2023-07-20T06:04:15;8.18;;;3.17;;
34505;SDS011;20748;42.632;23.198;2023-07-20T06:06:49;7.20;;;3.00;;
34505;SDS011;20748;42.632;23.198;2023-07-20T06:09:22;10.00;;;2.85;;
34505;SDS011;20748;42.632;23.198;2023-07-20T06:15:26;5.40;;;2.45;;
34505;SDS011;20748;42.632;23.198;2023-07-20T06:17:59;9.02;;;2.72;;
34505;SDS011;20748;42.632;23.198;2023-07-20T06:20:32;5.38;;;2.63;;
34505;SDS011;20748;42.632;23.198;2023-07-20T06:23:05;8.27;;;2.90;;
34505;SDS011;20748;42.632;23.198;2023-07-20T06:25:40;7.72;;;3.03;;
34505;SDS011;20748;42.632;23.198;2023-07-20T06:28:12;8.10;;;3.30;;
34505;SDS011;20748;42.632;23.198;2023-07-20T06:30:45;9.60;;;3.60;;
34505;SDS011;20748;42.632;23.198;2023-07-20T06:36:39;9.48;;;3.25;;
34505;SDS011;20748;42.632;23.198;2023-07-20T06:39:11;6.20;;;3.15;;
34505;SDS011;20748;42.632;23.198;2023-07-20T06:41:50;6.80;;;3.00;;
34505;SDS011;20748;42.632;23.198;2023-07-20T06:44:26;3.60;;;2.20;;
34505;SDS011;20748;42.632;23.198;2023-07-20T06:46:58;8.95;;;3.30;;
34505;SDS011;20748;42.632;23.198;2023-07-20T06:49:31;5.55;;;2.78;;
34505;SDS011;20748;42.632;23.198;2023-07-20T06:52:05;7.05;;;2.63;;
34505;SDS011;20748;42.632;23.198;2023-07-20T06:54:38;7.60;;;3.53;;
34505;SDS011;20748;42.632;23.198;2023-07-20T07:02:45;8.70;;;2.90;;
34505;SDS011;20748;42.632;23.198;2023-07-20T07:08:06;12.38;;;5.38;;
34505;SDS011;20748;42.632;23.198;2023-07-20T07:10:38;5.95;;;3.22;;
34505;SDS011;20748;42.632;23.198;2023-07-20T07:13:13;5.72;;;3.05;;
34505;SDS011;20748;42.632;23.198;2023-07-20T07:15:48;6.50;;;2.95;;
34505;SDS011;20748;42.632;23.198;2023-07-20T07:18:22;5.90;;;3.05;;
34505;SDS011;20748;42.632;23.198;2023-07-20T07:27:32;7.65;;;3.90;;
34505;SDS011;20748;42.632;23.198;2023-07-20T07:30:05;8.73;;;3.50;;
34505;SDS011;20748;42.632;23.198;2023-07-20T07:32:39;9.15;;;3.88;;
34505;SDS011;20748;42.632;23.198;2023-07-20T07:35:11;8.70;;;3.20;;
34505;SDS011;20748;42.632;23.198;2023-07-20T07:37:46;5.50;;;2.90;;
34505;SDS011;20748;42.632;23.198;2023-07-20T07:40:38;7.53;;;3.45;;
34505;SDS011;20748;42.632;23.198;2023-07-20T07:43:16;6.40;;;4.03;;
34505;SDS011;20748;42.632;23.198;2023-07-20T07:49:35;8.57;;;3.42;;
34505;SDS011;20748;42.632;23.198;2023-07-20T07:52:07;8.00;;;3.35;;
34505;SDS011;20748;42.632;23.198;2023-07-20T07:54:40;7.43;;;3.55;;
34505;SDS011;20748;42.632;23.198;2023-07-20T07:57:15;8.27;;;3.70;;
34505;SDS011;20748;42.632;23.198;2023-07-20T07:59:48;7.03;;;4.10;;
34505;SDS011;20748;42.632;23.198;2023-07-20T08:02:20;13.18;;;3.88;;
34505;SDS011;20748;42.632;23.198;2023-07-20T08:04:53;6.65;;;2.72;;
34505;SDS011;20748;42.632;23.198;2023-07-20T08:10:14;6.95;;;3.53;;
34505;SDS011;20748;42.632;23.198;2023-07-20T08:12:46;6.70;;;2.80;;
34505;SDS011;20748;42.632;23.198;2023-07-20T08:15:18;7.40;;;4.10;;
34505;SDS011;20748;42.632;23.198;2023-07-20T08:17:51;7.00;;;2.63;;
34505;SDS011;20748;42.632;23.198;2023-07-20T08:20:27;5.03;;;2.28;;
34505;SDS011;20748;42.632;23.198;2023-07-20T08:22:59;6.03;;;1.90;;
34505;SDS011;20748;42.632;23.198;2023-07-20T08:25:33;4.60;;;2.35;;
34505;SDS011;20748;42.632;23.198;2023-07-20T08:30:55;6.28;;;2.60;;
34505;SDS011;20748;42.632;23.198;2023-07-20T08:33:27;7.82;;;2.55;;
34505;SDS011;20748;42.632;23.198;2023-07-20T08:36:01;5.93;;;2.20;;
34505;SDS011;20748;42.632;23.198;2023-07-20T08:38:36;4.72;;;1.90;;
34505;SDS011;20748;42.632;23.198;2023-07-20T08:41:08;3.30;;;1.85;;
34505;SDS011;20748;42.632;23.198;2023-07-20T08:43:43;4.38;;;2.47;;
34505;SDS011;20748;42.632;23.198;2023-07-20T08:46:19;5.88;;;1.92;;
34505;SDS011;20748;42.632;23.198;2023-07-20T08:51:41;5.05;;;2.95;;
34505;SDS011;20748;42.632;23.198;2023-07-20T08:54:15;7.03;;;2.88;;
34505;SDS011;20748;42.632;23.198;2023-07-20T08:56:48;5.32;;;2.05;;
34505;SDS011;20748;42.632;23.198;2023-07-20T08:59:21;3.30;;;1.85;;
34505;SDS011;20748;42.632;23.198;2023-07-20T09:01:56;4.80;;;1.73;;
34505;SDS011;20748;42.632;23.198;2023-07-20T09:04:29;3.30;;;1.70;;
34505;SDS011;20748;42.632;23.198;2023-07-20T09:07:03;4.68;;;1.33;;
34505;SDS011;20748;42.632;23.198;2023-07-20T09:13:14;3.95;;;1.90;;
34505;SDS011;20748;42.632;23.198;2023-07-20T09:15:47;4.03;;;1.60;;
34505;SDS011;20748;42.632;23.198;2023-07-20T09:18:27;6.40;;;2.22;;
34505;SDS011;20748;42.632;23.198;2023-07-20T09:21:01;5.57;;;1.83;;
34505;SDS011;20748;42.632;23.198;2023-07-20T09:23:35;4.97;;;1.83;;
34505;SDS011;20748;42.632;23.198;2023-07-20T09:26:10;3.85;;;1.63;;
34505;SDS011;20748;42.632;23.198;2023-07-20T09:28:44;6.68;;;1.88;;
34505;SDS011;20748;42.632;23.198;2023-07-20T09:35:01;5.30;;;1.73;;
34505;SDS011;20748;42.632;23.198;2023-07-20T09:37:37;6.63;;;1.77;;
34505;SDS011;20748;42.632;23.198;2023-07-20T09:40:11;3.47;;;1.73;;
34505;SDS011;20748;42.632;23.198;2023-07-20T09:42:48;3.33;;;1.27;;
34505;SDS011;20748;42.632;23.198;2023-07-20T09:45:34;4.43;;;1.60;;
34505;SDS011;20748;42.632;23.198;2023-07-20T09:48:10;6.78;;;3.05;;
34505;SDS011;20748;42.632;23.198;2023-07-20T09:50:49;6.03;;;3.33;;
34505;SDS011;20748;42.632;23.198;2023-07-20T09:56:49;2.92;;;1.70;;
34505;SDS011;20748;42.632;23.198;2023-07-20T09:59:23;3.10;;;1.75;;
34505;SDS011;20748;42.632;23.198;2023-07-20T10:01:56;7.85;;;1.80;;
34505;SDS011;20748;42.632;23.198;2023-07-20T10:04:31;3.70;;;2.08;;
34505;SDS011;20748;42.632;23.198;2023-07-20T10:07:07;2.78;;;1.45;;
34505;SDS011;20748;42.632;23.198;2023-07-20T10:09:48;4.20;;;1.80;;
34505;SDS011;20748;42.632;23.198;2023-07-20T10:12:24;6.28;;;1.77;;
34505;SDS011;20748;42.632;23.198;2023-07-20T10:18:54;3.60;;;1.40;;
34505;SDS011;20748;42.632;23.198;2023-07-20T10:21:35;8.20;;;1.70;;
34505;SDS011;20748;42.632;23.198;2023-07-20T10:24:15;3.28;;;1.30;;
34505;SDS011;20748;42.632;23.198;2023-07-20T10:26:49;7.85;;;3.30;;
34505;SDS011;20748;42.632;23.198;2023-07-20T10:29:22;6.07;;;1.80;;
34505;SDS011;20748;42.632;23.198;2023-07-20T10:31:55;5.35;;;1.10;;
34505;SDS011;20748;42.632;23.198;2023-07-20T10:34:29;3.28;;;1.20;;
34505;SDS011;20748;42.632;23.198;2023-07-20T10:43:42;3.95;;;1.48;;
34505;SDS011;20748;42.632;23.198;2023-07-20T10:46:33;3.53;;;1.70;;
34505;SDS011;20748;42.632;23.198;2023-07-20T10:49:09;5.22;;;1.80;;
34505;SDS011;20748;42.632;23.198;2023-07-20T10:51:43;4.72;;;1.85;;
34505;SDS011;20748;42.632;23.198;2023-07-20T10:54:33;5.30;;;2.05;;
34505;SDS011;20748;42.632;23.198;2023-07-20T10:57:22;6.68;;;2.22;;
34505;SDS011;20748;42.632;23.198;2023-07-20T11:00:12;4.43;;;1.85;;
34505;SDS011;20748;42.632;23.198;2023-07-20T11:10:42;6.03;;;2.10;;
34505;SDS011;20748;42.632;23.198;2023-07-20T11:13:18;5.07;;;2.30;;
34505;SDS011;20748;42.632;23.198;2023-07-20T11:16:03;7.17;;;2.33;;
34505;SDS011;20748;42.632;23.198;2023-07-20T11:18:38;4.10;;;2.42;;
34505;SDS011;20748;42.632;23.198;2023-07-20T11:21:11;4.53;;;2.15;;
34505;SDS011;20748;42.632;23.198;2023-07-20T11:23:44;11.05;;;2.42;;
34505;SDS011;20748;42.632;23.198;2023-07-20T11:26:18;4.40;;;2.25;;
34505;SDS011;20748;42.632;23.198;2023-07-20T11:29:16;5.63;;;2.50;;
34505;SDS011;20748;42.632;23.198;2023-07-20T11:32:03;8.43;;;2.70;;
34505;SDS011;20748;42.632;23.198;2023-07-20T11:34:37;5.13;;;2.53;;
34505;SDS011;20748;42.632;23.198;2023-07-20T11:37:09;6.88;;;2.97;;
34505;SDS011;20748;42.632;23.198;2023-07-20T11:39:43;5.25;;;3.03;;
34505;SDS011;20748;42.632;23.198;2023-07-20T11:42:15;5.85;;;3.00;;
34505;SDS011;20748;42.632;23.198;2023-07-20T11:44:55;5.50;;;3.03;;
34505;SDS011;20748;42.632;23.198;2023-07-20T11:52:53;8.43;;;2.80;;
34505;SDS011;20748;42.632;23.198;2023-07-20T11:55:26;5.47;;;3.17;;
34505;SDS011;20748;42.632;23.198;2023-07-20T11:58:02;5.35;;;2.55;;
34505;SDS011;20748;42.632;23.198;2023-07-20T12:00:37;6.10;;;2.78;;
34505;SDS011;20748;42.632;23.198;2023-07-20T12:03:11;5.90;;;3.30;;
34505;SDS011;20748;42.632;23.198;2023-07-20T12:05:44;8.27;;;3.33;;
34505;SDS011;20748;42.632;23.198;2023-07-20T12:08:33;5.07;;;3.28;;
34505;SDS011;20748;42.632;23.198;2023-07-20T12:19:24;7.30;;;3.40;;
34505;SDS011;20748;42.632;23.198;2023-07-20T12:22:00;4.18;;;2.97;;
34505;SDS011;20748;42.632;23.198;2023-07-20T12:24:32;7.78;;;2.92;;
34505;SDS011;20748;42.632;23.198;2023-07-20T12:27:06;8.20;;;2.80;;
34505;SDS011;20748;42.632;23.198;2023-07-20T12:29:38;8.07;;;3.22;;
34505;SDS011;20748;42.632;23.198;2023-07-20T12:32:11;8.05;;;2.65;;
34505;SDS011;20748;42.632;23.198;2023-07-20T12:34:44;5.63;;;2.08;;
34505;SDS011;20748;42.632;23.198;2023-07-20T12:37:17;5.50;;;2.33;;
34505;SDS011;20748;42.632;23.198;2023-07-20T12:41:09;7.28;;;2.10;;
34505;SDS011;20748;42.632;23.198;2023-07-20T12:43:44;4.30;;;1.67;;
34505;SDS011;20748;42.632;23.198;2023-07-20T12:46:17;3.90;;;2.00;;
34505;SDS011;20748;42.632;23.198;2023-07-20T12:48:55;5.15;;;1.80;;
34505;SDS011;20748;42.632;23.198;2023-07-20T12:51:28;4.10;;;1.60;;
34505;SDS011;20748;42.632;23.198;2023-07-20T12:54:05;3.42;;;1.95;;
34505;SDS011;20748;42.632;23.198;2023-07-20T12:56:38;7.05;;;2.15;;
34505;SDS011;20748;42.632;23.198;2023-07-20T13:05:54;3.22;;;1.45;;
34505;SDS011;20748;42.632;23.198;2023-07-20T13:08:32;6.50;;;2.00;;
34505;SDS011;20748;42.632;23.198;2023-07-20T13:11:05;3.88;;;1.95;;
34505;SDS011;20748;42.632;23.198;2023-07-20T13:13:37;3.15;;;1.90;;
34505;SDS011;20748;42.632;23.198;2023-07-20T13:16:12;5.30;;;1.83;;
34505;SDS011;20748;42.632;23.198;2023-07-20T13:18:46;7.47;;;2.35;;
34505;SDS011;20748;42.632;23.198;2023-07-20T13:21:19;6.07;;;3.13;;
34505;SDS011;20748;42.632;23.198;2023-07-20T13:30:36;6.13;;;3.92;;
34505;SDS011;20748;42.632;23.198;2023-07-20T13:33:12;5.50;;;2.90;;
34505;SDS011;20748;42.632;23.198;2023-07-20T13:35:49;8.38;;;3.03;;
34505;SDS011;20748;42.632;23.198;2023-07-20T13:38:21;7.32;;;2.80;;
34505;SDS011;20748;42.632;23.198;2023-07-20T13:40:54;5.05;;;2.75;;
34505;SDS011;20748;42.632;23.198;2023-07-20T13:43:26;5.35;;;2.65;;
34505;SDS011;20748;42.632;23.198;2023-07-20T13:45:59;3.60;;;2.60;;
34505;SDS011;20748;42.632;23.198;2023-07-20T13:55:09;3.63;;;1.77;;
34505;SDS011;20748;42.632;23.198;2023-07-20T13:57:41;6.07;;;1.92;;
34505;SDS011;20748;42.632;23.198;2023-07-20T14:00:15;4.35;;;1.90;;
34505;SDS011;20748;42.632;23.198;2023-07-20T14:02:50;2.72;;;1.55;;
34505;SDS011;20748;42.632;23.198;2023-07-20T14:05:26;3.63;;;1.58;;
34505;SDS011;20748;42.632;23.198;2023-07-20T14:08:02;8.20;;;3.20;;
34505;SDS011;20748;42.632;23.198;2023-07-20T14:10:35;5.72;;;1.92;;
34505;SDS011;20748;42.632;23.198;2023-07-20T14:21:13;5.25;;;1.35;;
34505;SDS011;20748;42.632;23.198;2023-07-20T14:23:49;6.70;;;1.55;;
34505;SDS011;20748;42.632;23.198;2023-07-20T14:26:25;3.40;;;1.90;;
34505;SDS011;20748;42.632;23.198;2023-07-20T14:28:58;4.18;;;1.50;;
34505;SDS011;20748;42.632;23.198;2023-07-20T14:31:30;4.88;;;1.85;;
34505;SDS011;20748;42.632;23.198;2023-07-20T14:34:05;3.67;;;1.70;;
34505;SDS011;20748;42.632;23.198;2023-07-20T14:36:38;2.75;;;1.17;;
34505;SDS011;20748;42.632;23.198;2023-07-20T14:45:48;5.22;;;1.85;;
34505;SDS011;20748;42.632;23.198;2023-07-20T14:48:21;4.10;;;1.55;;
34505;SDS011;20748;42.632;23.198;2023-07-20T14:50:53;4.38;;;1.45;;
34505;SDS011;20748;42.632;23.198;2023-07-20T14:53:36;3.15;;;1.60;;
34505;SDS011;20748;42.632;23.198;2023-07-20T14:56:08;5.63;;;1.58;;
34505;SDS011;20748;42.632;23.198;2023-07-20T14:58:41;5.03;;;2.05;;
34505;SDS011;20748;42.632;23.198;2023-07-20T15:01:14;6.60;;;2.00;;
34505;SDS011;20748;42.632;23.198;2023-07-20T15:10:23;6.13;;;2.00;;
34505;SDS011;20748;42.632;23.198;2023-07-20T15:12:55;4.13;;;1.33;;
34505;SDS011;20748;42.632;23.198;2023-07-20T15:15:30;4.75;;;1.65;;
34505;SDS011;20748;42.632;23.198;2023-07-20T15:18:11;2.97;;;1.23;;
34505;SDS011;20748;42.632;23.198;2023-07-20T15:20:44;3.28;;;1.75;;
34505;SDS011;20748;42.632;23.198;2023-07-20T15:23:16;4.78;;;1.80;;
34505;SDS011;20748;42.632;23.198;2023-07-20T15:25:49;6.05;;;1.67;;
34505;SDS011;20748;42.632;23.198;2023-07-20T15:36:18;2.90;;;1.25;;
34505;SDS011;20748;42.632;23.198;2023-07-20T15:38:51;4.22;;;2.00;;
34505;SDS011;20748;42.632;23.198;2023-07-20T15:41:23;5.82;;;2.05;;
34505;SDS011;20748;42.632;23.198;2023-07-20T15:43:56;2.80;;;1.10;;
34505;SDS011;20748;42.632;23.198;2023-07-20T15:46:44;6.20;;;1.80;;
34505;SDS011;20748;42.632;23.198;2023-07-20T15:49:21;3.15;;;1.50;;
34505;SDS011;20748;42.632;23.198;2023-07-20T15:51:54;3.40;;;1.50;;
34505;SDS011;20748;42.632;23.198;2023-07-20T16:00:59;3.33;;;1.83;;
34505;SDS011;20748;42.632;23.198;2023-07-20T16:03:32;3.50;;;1.30;;
34505;SDS011;20748;42.632;23.198;2023-07-20T16:06:09;5.63;;;2.13;;
34505;SDS011;20748;42.632;23.198;2023-07-20T16:08:41;4.10;;;1.85;;
34505;SDS011;20748;42.632;23.198;2023-07-20T16:11:13;4.50;;;1.60;;
34505;SDS011;20748;42.632;23.198;2023-07-20T16:13:46;5.22;;;1.90;;
34505;SDS011;20748;42.632;23.198;2023-07-20T16:16:19;5.70;;;2.47;;
34505;SDS011;20748;42.632;23.198;2023-07-20T16:21:41;3.10;;;1.30;;
34505;SDS011;20748;42.632;23.198;2023-07-20T16:24:14;2.65;;;1.60;;
34505;SDS011;20748;42.632;23.198;2023-07-20T16:26:49;4.88;;;1.52;;
34505;SDS011;20748;42.632;23.198;2023-07-20T16:29:22;4.43;;;1.90;;
34505;SDS011;20748;42.632;23.198;2023-07-20T16:31:58;6.22;;;1.80;;
34505;SDS011;20748;42.632;23.198;2023-07-20T16:34:33;3.50;;;1.90;;
34505;SDS011;20748;42.632;23.198;2023-07-20T16:37:20;3.65;;;1.50;;
34505;SDS011;20748;42.632;23.198;2023-07-20T16:42:44;3.05;;;1.70;;
34505;SDS011;20748;42.632;23.198;2023-07-20T16:45:20;2.88;;;1.50;;
34505;SDS011;20748;42.632;23.198;2023-07-20T16:47:55;2.67;;;1.40;;
34505;SDS011;20748;42.632;23.198;2023-07-20T16:50:29;4.22;;;1.73;;
34505;SDS011;20748;42.632;23.198;2023-07-20T16:53:01;2.85;;;1.60;;
34505;SDS011;20748;42.632;23.198;2023-07-20T16:55:34;7.03;;;1.52;;
34505;SDS011;20748;42.632;23.198;2023-07-20T16:58:07;4.72;;;1.83;;
34505;SDS011;20748;42.632;23.198;2023-07-20T17:09:36;5.90;;;2.10;;
34505;SDS011;20748;42.632;23.198;2023-07-20T17:12:09;6.30;;;1.45;;
34505;SDS011;20748;42.632;23.198;2023-07-20T17:14:42;2.65;;;1.35;;
34505;SDS011;20748;42.632;23.198;2023-07-20T17:17:14;6.28;;;1.10;;
34505;SDS011;20748;42.632;23.198;2023-07-20T17:19:46;4.35;;;1.58;;
34505;SDS011;20748;42.632;23.198;2023-07-20T17:22:19;7.15;;;1.80;;
34505;SDS011;20748;42.632;23.198;2023-07-20T17:24:52;5.10;;;2.10;;
34505;SDS011;20748;42.632;23.198;2023-07-20T17:31:02;9.73;;;4.75;;
34505;SDS011;20748;42.632;23.198;2023-07-20T17:33:37;7.85;;;2.70;;
34505;SDS011;20748;42.632;23.198;2023-07-20T17:36:10;6.93;;;2.53;;
34505;SDS011;20748;42.632;23.198;2023-07-20T17:38:46;10.50;;;2.08;;
34505;SDS011;20748;42.632;23.198;2023-07-20T17:41:18;3.35;;;1.58;;
34505;SDS011;20748;42.632;23.198;2023-07-20T17:43:50;5.43;;;1.55;;
34505;SDS011;20748;42.632;23.198;2023-07-20T17:46:23;3.53;;;1.80;;
34505;SDS011;20748;42.632;23.198;2023-07-20T17:51:50;3.45;;;2.58;;
34505;SDS011;20748;42.632;23.198;2023-07-20T17:54:29;2.17;;;1.30;;
34505;SDS011;20748;42.632;23.198;2023-07-20T17:57:02;3.47;;;1.85;;
34505;SDS011;20748;42.632;23.198;2023-07-20T17:59:35;5.30;;;1.40;;
34505;SDS011;20748;42.632;23.198;2023-07-20T18:02:29;5.20;;;1.38;;
34505;SDS011;20748;42.632;23.198;2023-07-20T18:05:01;3.92;;;1.48;;
34505;SDS011;20748;42.632;23.198;2023-07-20T18:07:35;3.90;;;1.75;;
34505;SDS011;20748;42.632;23.198;2023-07-20T18:15:43;6.18;;;1.20;;
34505;SDS011;20748;42.632;23.198;2023-07-20T18:18:15;2.90;;;1.42;;
34505;SDS011;20748;42.632;23.198;2023-07-20T18:20:48;7.45;;;2.25;;
34505;SDS011;20748;42.632;23.198;2023-07-20T18:23:20;3.90;;;1.35;;
34505;SDS011;20748;42.632;23.198;2023-07-20T18:25:52;3.58;;;2.00;;
34505;SDS011;20748;42.632;23.198;2023-07-20T18:28:25;3.42;;;1.30;;
34505;SDS011;20748;42.632;23.198;2023-07-20T18:31:03;6.72;;;1.40;;
34505;SDS011;20748;42.632;23.198;2023-07-20T18:37:22;3.33;;;1.15;;
34505;SDS011;20748;42.632;23.198;2023-07-20T18:39:56;2.22;;;1.05;;
34505;SDS011;20748;42.632;23.198;2023-07-20T18:42:28;6.07;;;1.35;;
34505;SDS011;20748;42.632;23.198;2023-07-20T18:45:03;6.97;;;2.10;;
34505;SDS011;20748;42.632;23.198;2023-07-20T18:47:36;3.17;;;1.58;;
34505;SDS011;20748;42.632;23.198;2023-07-20T18:50:11;2.45;;;1.10;;
34505;SDS011;20748;42.632;23.198;2023-07-20T18:52:45;5.97;;;1.77;;
34505;SDS011;20748;42.632;23.198;2023-07-20T18:59:10;2.72;;;1.40;;
34505;SDS011;20748;42.632;23.198;2023-07-20T19:01:43;2.58;;;1.58;;
34505;SDS011;20748;42.632;23.198;2023-07-20T19:04:17;5.47;;;2.35;;
34505;SDS011;20748;42.632;23.198;2023-07-20T19:06:50;4.60;;;1.65;;
34505;SDS011;20748;42.632;23.198;2023-07-20T19:09:22;2.45;;;1.30;;
34505;SDS011;20748;42.632;23.198;2023-07-20T19:11:55;4.32;;;1.65;;
34505;SDS011;20748;42.632;23.198;2023-07-20T19:14:29;3.78;;;1.17;;
34505;SDS011;20748;42.632;23.198;2023-07-20T19:20:28;5.00;;;2.17;;
34505;SDS011;20748;42.632;23.198;2023-07-20T19:23:01;3.97;;;1.92;;
34505;SDS011;20748;42.632;23.198;2023-07-20T19:25:33;4.80;;;1.63;;
34505;SDS011;20748;42.632;23.198;2023-07-20T19:28:06;3.80;;;1.88;;
34505;SDS011;20748;42.632;23.198;2023-07-20T19:30:38;3.67;;;1.88;;